Altair, Texas
Current Conditions -  °F | °C
As of 7:15 PM on Saturday 22 Nov 2014 (Local Time) from K66R Reporting Station
Light Rain Light Rain  
Wind Chill: 67°   Ceiling: 1000
Heat Index: 67°   Visibility: 7mi
Dew Point: 66°   Wind: 3mph
Humidity: 97%   Direction: 190°S
Pressure: 29.8"   Gusts: NA
Location:  29.57°N, 96.45°W
Report Text: K66R 230115Z AUTO 19003KT 7SM -RA BKN010 OVC014 20/19 A2980 RMK AO2 LTG DSNT E T01950190
Loading
Personal Weather Stations






























Interactive Weather Map New forecast layout! Learn more

10-Day Weather Forecast

Advertisements
Track Severe Weather on mobile